Time;durP1;ratioP1;P1;durP2;ratioP2;P2;SDS_P1;SDS_P2;PMS_P1;PMS_P2;Temp;Humidity;BMP_temperature;BMP_pressure;BME280_temperature;BME280_humidity;BME280_pressure;Samples;Min_cycle;Max_cycle;Signal;HPM_P1;HPM_P2
2022/08/02 00:02:20;;;;;;;9.60;4.63;;;;;;;;;;5122732;28;20084;-83
2022/08/02 00:04:46;;;;;;;7.10;4.25;;;;;;;;;;5121253;28;20426;-85
2022/08/02 00:07:11;;;;;;;7.60;4.00;;;;;;;;;;5117299;28;20028;-84
2022/08/02 00:09:37;;;;;;;7.65;3.45;;;;;;;;;;5122222;28;20312;-85
2022/08/02 00:12:03;;;;;;;7.00;3.60;;;;;;;;;;5122046;28;20102;-84
2022/08/02 00:14:29;;;;;;;7.13;3.45;;;;;;;;;;5116471;28;20020;-85
2022/08/02 00:16:54;;;;;;;5.65;3.15;;;;;;;;;;5116271;28;20435;-84
2022/08/02 00:19:20;;;;;;;6.82;3.08;;;;;;;;;;5115001;28;20027;-85
2022/08/02 00:21:45;;;;;;;7.75;2.92;;;;;;;;;;5122196;28;20086;-84
2022/08/02 00:24:11;;;;;;;7.25;2.80;;;;;;;;;;5108641;28;20019;-83
2022/08/02 00:26:36;;;;;;;4.80;2.72;;;;;;;;;;5121767;28;20095;-83
2022/08/02 00:29:02;;;;;;;6.38;3.05;;;;;;;;;;5121917;28;20032;-82
2022/08/02 00:31:27;;;;;;;4.60;2.60;;;;;;;;;;5122288;28;20068;-84
2022/08/02 00:33:52;;;;;;;5.05;2.85;;;;;;;;;;5121841;28;20098;-82
2022/08/02 00:36:18;;;;;;;5.50;2.60;;;;;;;;;;5121744;28;20346;-84
2022/08/02 00:38:43;;;;;;;4.80;2.60;;;;;;;;;;5121620;28;20114;-84
2022/08/02 00:41:13;;;;;;;3.72;2.47;;;;;;;;;;5122002;28;20031;-84
2022/08/02 00:43:39;;;;;;;5.60;2.60;;;;;;;;;;5121266;28;20087;-84
2022/08/02 00:46:05;;;;;;;6.47;2.45;;;;;;;;;;5103899;28;20046;-83
2022/08/02 00:48:30;;;;;;;6.20;2.65;;;;;;;;;;5113258;28;20031;-84
2022/08/02 00:50:56;;;;;;;7.43;2.70;;;;;;;;;;5116166;28;20030;-84
2022/08/02 00:53:21;;;;;;;4.45;2.47;;;;;;;;;;5099919;28;20047;-84
2022/08/02 00:55:47;;;;;;;4.50;2.50;;;;;;;;;;5101231;28;20088;-83
2022/08/02 00:58:12;;;;;;;6.30;2.92;;;;;;;;;;5099211;28;20039;-84
2022/08/02 01:00:37;;;;;;;4.50;2.60;;;;;;;;;;5097857;28;20031;-84
2022/08/02 01:03:03;;;;;;;5.82;2.70;;;;;;;;;;5101247;28;20227;-84
2022/08/02 01:05:28;;;;;;;5.47;2.45;;;;;;;;;;5093237;28;20024;-84
2022/08/02 01:07:54;;;;;;;6.25;2.60;;;;;;;;;;5090670;28;20208;-84
2022/08/02 01:10:19;;;;;;;5.97;2.60;;;;;;;;;;5100795;28;20341;-83
2022/08/02 01:12:46;;;;;;;3.33;2.40;;;;;;;;;;5100931;28;20177;-84
2022/08/02 01:15:12;;;;;;;4.18;2.50;;;;;;;;;;5101138;28;20016;-83
2022/08/02 01:17:57;;;;;;;5.20;2.47;;;;;;;;;;5094729;28;20096;-83
2022/08/02 01:20:56;;;;;;;5.38;2.50;;;;;;;;;;5089186;28;20069;-85
2022/08/02 01:23:36;;;;;;;3.70;2.50;;;;;;;;;;5100806;28;20015;-84
2022/08/02 01:26:39;;;;;;;5.00;2.53;;;;;;;;;;5092946;28;20024;-83
2022/08/02 01:29:12;;;;;;;6.38;2.63;;;;;;;;;;5093071;28;20028;-81
2022/08/02 01:31:43;;;;;;;4.50;2.55;;;;;;;;;;5100901;28;20024;-84
2022/08/02 01:34:17;;;;;;;4.22;2.60;;;;;;;;;;5100745;28;20383;-81
2022/08/02 01:36:48;;;;;;;9.48;2.75;;;;;;;;;;5096295;28;20060;-81
2022/08/02 01:39:18;;;;;;;11.32;2.90;;;;;;;;;;5092752;28;20028;-84
2022/08/02 01:41:45;;;;;;;15.82;2.83;;;;;;;;;;5104105;28;20117;-84
2022/08/02 01:44:13;;;;;;;7.05;2.58;;;;;;;;;;5099323;28;20024;-84
2022/08/02 01:46:41;;;;;;;8.25;2.80;;;;;;;;;;5104930;28;20315;-83
2022/08/02 01:49:11;;;;;;;10.30;2.70;;;;;;;;;;5103150;28;20031;-84
2022/08/02 01:54:28;;;;;;;4.45;2.70;;;;;;;;;;5115368;28;20091;-84
2022/08/02 01:56:55;;;;;;;4.15;2.42;;;;;;;;;;5125149;28;20023;-84
2022/08/02 01:59:22;;;;;;;3.40;2.40;;;;;;;;;;5125167;28;20031;-80
2022/08/02 02:01:50;;;;;;;4.60;2.78;;;;;;;;;;5125003;28;20054;-82
2022/08/02 02:04:18;;;;;;;6.60;2.70;;;;;;;;;;5118346;28;20330;-84
2022/08/02 02:06:45;;;;;;;4.65;2.50;;;;;;;;;;5125077;28;20019;-83
2022/08/02 02:09:13;;;;;;;5.00;2.60;;;;;;;;;;5124530;28;20293;-84
2022/08/02 02:11:41;;;;;;;4.55;2.65;;;;;;;;;;5124627;28;20059;-84
2022/08/02 02:14:10;;;;;;;3.58;2.40;;;;;;;;;;5124792;28;20250;-82
2022/08/02 02:16:36;;;;;;;4.63;2.58;;;;;;;;;;5124864;28;20047;-84
2022/08/02 02:19:03;;;;;;;5.22;2.80;;;;;;;;;;5118015;28;20077;-80
2022/08/02 02:21:29;;;;;;;5.65;2.72;;;;;;;;;;5124699;28;20042;-85
2022/08/02 02:23:54;;;;;;;3.85;2.60;;;;;;;;;;5124392;28;20059;-84
2022/08/02 02:26:22;;;;;;;4.28;2.67;;;;;;;;;;5124285;28;20026;-84
2022/08/02 02:28:49;;;;;;;5.70;2.60;;;;;;;;;;5113745;28;20347;-84
2022/08/02 02:31:18;;;;;;;4.63;2.53;;;;;;;;;;5124634;28;20211;-84
2022/08/02 02:33:50;;;;;;;5.03;2.67;;;;;;;;;;5124205;28;20020;-84
2022/08/02 02:36:18;;;;;;;5.72;2.40;;;;;;;;;;5119995;28;20031;-84
2022/08/02 02:38:45;;;;;;;4.00;2.38;;;;;;;;;;5124032;28;20266;-84
2022/08/02 02:41:12;;;;;;;5.47;2.40;;;;;;;;;;5124217;28;20032;-85
2022/08/02 02:43:39;;;;;;;3.90;2.20;;;;;;;;;;5124729;28;20036;-81
2022/08/02 02:46:06;;;;;;;3.55;2.13;;;;;;;;;;5124038;28;20022;-85
2022/08/02 02:48:33;;;;;;;4.15;2.20;;;;;;;;;;5123762;28;20024;-84
2022/08/02 02:50:59;;;;;;;3.47;2.17;;;;;;;;;;5121199;28;20243;-84
2022/08/02 02:53:26;;;;;;;4.00;2.30;;;;;;;;;;5123845;28;20078;-84
2022/08/02 02:55:52;;;;;;;3.90;2.40;;;;;;;;;;5105185;28;20019;-79
2022/08/02 02:58:18;;;;;;;5.22;2.38;;;;;;;;;;5120260;28;20078;-84
2022/08/02 03:03:29;;;;;;;4.13;2.22;;;;;;;;;;5123880;28;20030;-84
2022/08/02 03:05:55;;;;;;;5.28;2.40;;;;;;;;;;5117241;28;20073;-85
2022/08/02 03:08:20;;;;;;;6.32;2.42;;;;;;;;;;5123310;28;20027;-84
2022/08/02 03:10:46;;;;;;;5.38;2.30;;;;;;;;;;5123443;28;20031;-84
2022/08/02 03:13:12;;;;;;;3.30;2.10;;;;;;;;;;5121485;28;20035;-84
2022/08/02 03:15:38;;;;;;;4.38;2.50;;;;;;;;;;5117502;28;20030;-83
2022/08/02 03:18:06;;;;;;;3.50;2.20;;;;;;;;;;5117653;28;20028;-83
2022/08/02 03:20:32;;;;;;;5.57;2.15;;;;;;;;;;5101231;28;20077;-83
2022/08/02 03:22:57;;;;;;;3.25;2.00;;;;;;;;;;5099552;28;20324;-83
2022/08/02 03:25:22;;;;;;;4.63;2.00;;;;;;;;;;5122828;28;20057;-83
2022/08/02 03:27:48;;;;;;;4.45;2.10;;;;;;;;;;5122746;28;20031;-80
2022/08/02 03:30:14;;;;;;;5.30;2.30;;;;;;;;;;5121460;28;20027;-84
2022/08/02 03:32:42;;;;;;;3.83;2.10;;;;;;;;;;5096356;28;20051;-83
2022/08/02 03:35:10;;;;;;;6.75;2.10;;;;;;;;;;5119753;28;20034;-84
2022/08/02 03:37:36;;;;;;;5.57;2.00;;;;;;;;;;5118102;28;20090;-83
2022/08/02 03:40:04;;;;;;;4.10;1.95;;;;;;;;;;5110987;28;20028;-83
2022/08/02 03:42:30;;;;;;;5.38;1.92;;;;;;;;;;5116859;28;20023;-84
2022/08/02 03:44:58;;;;;;;8.15;2.22;;;;;;;;;;5110305;28;20028;-84
2022/08/02 03:47:25;;;;;;;5.20;2.28;;;;;;;;;;5122596;28;20082;-84
2022/08/02 03:49:51;;;;;;;5.25;2.20;;;;;;;;;;5122863;28;20027;-84
2022/08/02 03:52:16;;;;;;;7.03;2.10;;;;;;;;;;5099054;28;20092;-84
2022/08/02 03:54:41;;;;;;;4.80;2.10;;;;;;;;;;5100677;28;20034;-84
2022/08/02 03:57:08;;;;;;;11.18;2.17;;;;;;;;;;5102550;28;20016;-84
2022/08/02 03:59:42;;;;;;;30.60;4.07;;;;;;;;;;5095603;28;20044;-84
2022/08/02 04:02:08;;;;;;;34.10;3.00;;;;;;;;;;5102135;28;20364;-84
2022/08/02 04:04:33;;;;;;;17.25;2.97;;;;;;;;;;5102400;28;20303;-83
2022/08/02 04:06:59;;;;;;;10.52;2.25;;;;;;;;;;5090587;28;20020;-84
2022/08/02 04:09:24;;;;;;;5.43;2.08;;;;;;;;;;5099970;28;20032;-84
2022/08/02 04:11:49;;;;;;;3.15;1.85;;;;;;;;;;5102121;28;20048;-83
2022/08/02 04:14:15;;;;;;;3.08;1.90;;;;;;;;;;5098109;28;20047;-83
2022/08/02 04:16:47;;;;;;;2.97;1.90;;;;;;;;;;5094120;28;20022;-82
2022/08/02 04:19:44;;;;;;;3.25;1.98;;;;;;;;;;5095551;28;20189;-84
2022/08/02 04:22:15;;;;;;;5.10;1.90;;;;;;;;;;5066795;28;20035;-83
2022/08/02 04:24:46;;;;;;;3.22;1.83;;;;;;;;;;5097150;28;20016;-84
2022/08/02 04:27:12;;;;;;;3.58;1.90;;;;;;;;;;5101178;28;20027;-84
2022/08/02 04:29:39;;;;;;;3.00;2.00;;;;;;;;;;5098929;28;20110;-84
2022/08/02 04:32:06;;;;;;;5.22;2.10;;;;;;;;;;5101962;28;20028;-84
2022/08/02 04:34:32;;;;;;;5.53;2.08;;;;;;;;;;5101992;28;20133;-84
2022/08/02 04:36:57;;;;;;;4.68;2.10;;;;;;;;;;5099957;28;20039;-83
2022/08/02 04:39:23;;;;;;;3.92;2.10;;;;;;;;;;5100967;28;20027;-84
2022/08/02 04:41:49;;;;;;;4.53;2.15;;;;;;;;;;5101561;28;20047;-84
2022/08/02 04:44:14;;;;;;;4.38;2.00;;;;;;;;;;5094869;28;20241;-85
2022/08/02 04:46:41;;;;;;;7.50;2.15;;;;;;;;;;5101396;28;20044;-83
2022/08/02 04:49:06;;;;;;;5.05;2.00;;;;;;;;;;5100063;28;20028;-84
2022/08/02 04:51:38;;;;;;;4.78;2.25;;;;;;;;;;5099732;28;20024;-83
2022/08/02 04:54:05;;;;;;;6.20;2.03;;;;;;;;;;5112964;28;20082;-82
2022/08/02 04:56:30;;;;;;;3.85;2.00;;;;;;;;;;5115929;28;20028;-80
2022/08/02 04:58:55;;;;;;;4.80;2.10;;;;;;;;;;5099631;28;20193;-84
2022/08/02 05:01:21;;;;;;;6.05;2.00;;;;;;;;;;5103142;28;20030;-83
2022/08/02 05:03:46;;;;;;;4.00;2.03;;;;;;;;;;5095518;28;20063;-83
2022/08/02 05:06:11;;;;;;;4.70;2.08;;;;;;;;;;5114968;28;20023;-85
2022/08/02 05:08:37;;;;;;;5.85;2.30;;;;;;;;;;5120840;28;20437;-85
2022/08/02 05:11:02;;;;;;;7.85;2.08;;;;;;;;;;5121901;28;20113;-84
2022/08/02 05:13:28;;;;;;;7.13;1.95;;;;;;;;;;5106937;28;20035;-80
2022/08/02 05:15:53;;;;;;;11.23;2.13;;;;;;;;;;5121097;28;20031;-82
2022/08/02 05:18:18;;;;;;;11.27;2.10;;;;;;;;;;5121204;28;20011;-82
2022/08/02 05:20:44;;;;;;;7.28;2.13;;;;;;;;;;5121395;28;20016;-82
2022/08/02 05:23:09;;;;;;;5.80;2.20;;;;;;;;;;5090096;28;20036;-84
2022/08/02 05:25:35;;;;;;;7.13;2.40;;;;;;;;;;5121322;28;20358;-81
2022/08/02 05:28:00;;;;;;;6.75;2.15;;;;;;;;;;5121253;28;20200;-82
2022/08/02 05:30:25;;;;;;;9.18;2.00;;;;;;;;;;5120838;28;20080;-83
2022/08/02 05:32:53;;;;;;;8.23;2.10;;;;;;;;;;5121224;28;20023;-83
2022/08/02 05:35:21;;;;;;;4.72;2.10;;;;;;;;;;5120930;28;20320;-81
2022/08/02 05:37:47;;;;;;;4.95;2.13;;;;;;;;;;5120511;28;20095;-83
2022/08/02 05:40:13;;;;;;;8.93;2.40;;;;;;;;;;5115390;28;20019;-79
2022/08/02 05:42:39;;;;;;;7.88;2.20;;;;;;;;;;5121195;28;20211;-81
2022/08/02 05:45:05;;;;;;;4.78;2.22;;;;;;;;;;5107105;28;20024;-83
2022/08/02 05:47:30;;;;;;;6.25;2.10;;;;;;;;;;5114777;28;20024;-84
2022/08/02 05:49:56;;;;;;;5.22;2.00;;;;;;;;;;5120961;28;20028;-82
2022/08/02 05:52:25;;;;;;;5.18;2.10;;;;;;;;;;5120759;28;20061;-81
2022/08/02 05:55:13;;;;;;;5.18;1.98;;;;;;;;;;5114384;28;20380;-80
2022/08/02 05:57:51;;;;;;;7.50;2.08;;;;;;;;;;5100211;28;20191;-82
2022/08/02 06:00:17;;;;;;;13.35;2.38;;;;;;;;;;5118500;28;20024;-83
2022/08/02 06:02:42;;;;;;;6.55;2.40;;;;;;;;;;5121064;28;20004;-82
2022/08/02 06:05:12;;;;;;;11.15;2.33;;;;;;;;;;5117822;28;20023;-82
2022/08/02 06:07:41;;;;;;;4.55;1.90;;;;;;;;;;5117667;28;20394;-81
2022/08/02 06:10:08;;;;;;;12.07;2.15;;;;;;;;;;5111547;28;20031;-82
2022/08/02 06:13:00;;;;;;;5.13;1.92;;;;;;;;;;5120994;28;20024;-83
2022/08/02 06:15:26;;;;;;;5.35;1.88;;;;;;;;;;5109051;28;20019;-81
2022/08/02 06:17:52;;;;;;;3.88;1.90;;;;;;;;;;5114442;28;20343;-83
2022/08/02 06:20:19;;;;;;;5.10;1.92;;;;;;;;;;5114540;28;20091;-82
2022/08/02 06:22:45;;;;;;;4.47;1.70;;;;;;;;;;5120005;28;20020;-83
2022/08/02 06:25:12;;;;;;;4.53;1.90;;;;;;;;;;5123436;28;20031;-83
2022/08/02 06:27:38;;;;;;;4.50;1.75;;;;;;;;;;5124346;28;20023;-82
2022/08/02 06:30:05;;;;;;;5.10;1.70;;;;;;;;;;5123677;28;20028;-81
2022/08/02 06:32:32;;;;;;;7.93;1.83;;;;;;;;;;5124374;28;20046;-82
2022/08/02 06:34:57;;;;;;;4.60;2.15;;;;;;;;;;5124224;28;20019;-82
2022/08/02 06:37:36;;;;;;;3.88;2.03;;;;;;;;;;5123934;28;20026;-80
2022/08/02 06:40:11;;;;;;;7.32;2.20;;;;;;;;;;5118637;28;20027;-83
2022/08/02 06:42:48;;;;;;;4.88;1.90;;;;;;;;;;5111609;28;20049;-81
2022/08/02 06:45:13;;;;;;;5.05;1.80;;;;;;;;;;5116557;28;20100;-81
2022/08/02 06:47:39;;;;;;;3.92;1.90;;;;;;;;;;5123908;28;20032;-79
2022/08/02 06:50:05;;;;;;;6.45;1.90;;;;;;;;;;5123571;28;20028;-82
2022/08/02 06:52:30;;;;;;;7.78;3.95;;;;;;;;;;5123449;28;20050;-83
2022/08/02 06:55:02;;;;;;;6.22;2.20;;;;;;;;;;5094846;28;20255;-83
2022/08/02 06:57:28;;;;;;;5.22;1.80;;;;;;;;;;5123810;28;20031;-81
2022/08/02 06:59:54;;;;;;;3.85;1.92;;;;;;;;;;5123408;28;20038;-82
2022/08/02 07:02:19;;;;;;;4.70;2.00;;;;;;;;;;5123617;28;20059;-83
2022/08/02 07:04:45;;;;;;;7.55;1.88;;;;;;;;;;5123490;28;20078;-82
2022/08/02 07:07:10;;;;;;;5.50;1.90;;;;;;;;;;5116817;28;20031;-81
2022/08/02 07:09:36;;;;;;;4.43;2.10;;;;;;;;;;5123273;28;20023;-81
2022/08/02 07:12:01;;;;;;;5.20;1.70;;;;;;;;;;5105212;28;20373;-81
2022/08/02 07:14:26;;;;;;;5.45;1.88;;;;;;;;;;5105009;28;20043;-83
2022/08/02 07:16:52;;;;;;;6.85;1.92;;;;;;;;;;5116096;28;20024;-80
2022/08/02 07:19:17;;;;;;;8.32;2.20;;;;;;;;;;5123165;28;20020;-82
2022/08/02 07:21:43;;;;;;;3.80;1.80;;;;;;;;;;5116492;28;20023;-80
2022/08/02 07:24:08;;;;;;;6.85;2.13;;;;;;;;;;5123094;28;20039;-83
2022/08/02 07:26:33;;;;;;;3.88;2.10;;;;;;;;;;5123353;28;20054;-83
2022/08/02 07:28:59;;;;;;;7.70;2.20;;;;;;;;;;5123303;28;20350;-83
2022/08/02 07:31:24;;;;;;;9.10;2.50;;;;;;;;;;5123247;28;20077;-82
2022/08/02 07:33:49;;;;;;;3.47;1.73;;;;;;;;;;5123347;28;20112;-84
2022/08/02 07:36:15;;;;;;;7.47;1.88;;;;;;;;;;5122281;28;20130;-83
2022/08/02 07:38:40;;;;;;;7.35;1.98;;;;;;;;;;5113959;28;20274;-82
2022/08/02 07:41:06;;;;;;;13.02;2.00;;;;;;;;;;5122932;28;20068;-82
2022/08/02 07:43:31;;;;;;;12.35;2.47;;;;;;;;;;5121528;28;20042;-80
2022/08/02 07:45:56;;;;;;;8.65;2.20;;;;;;;;;;5117659;28;20027;-83
2022/08/02 07:48:22;;;;;;;5.03;1.80;;;;;;;;;;5123042;28;20015;-83
2022/08/02 07:50:48;;;;;;;5.40;1.90;;;;;;;;;;5122350;28;20094;-83
2022/08/02 07:53:13;;;;;;;4.00;2.08;;;;;;;;;;5122498;28;20366;-80
2022/08/02 07:55:39;;;;;;;5.25;1.90;;;;;;;;;;5122603;28;20026;-82
2022/08/02 07:58:04;;;;;;;12.38;2.40;;;;;;;;;;5122608;28;20031;-83
2022/08/02 08:00:30;;;;;;;9.77;2.20;;;;;;;;;;5121441;28;20024;-80
2022/08/02 08:02:55;;;;;;;9.27;2.20;;;;;;;;;;5115196;28;20024;-82
2022/08/02 08:05:22;;;;;;;7.35;2.50;;;;;;;;;;5117540;28;20020;-80
2022/08/02 08:07:47;;;;;;;6.57;2.40;;;;;;;;;;5099093;28;20031;-82
2022/08/02 08:10:13;;;;;;;10.82;2.20;;;;;;;;;;5121962;28;20216;-82
2022/08/02 08:12:38;;;;;;;8.18;2.20;;;;;;;;;;5122512;28;20080;-83
2022/08/02 08:15:04;;;;;;;7.78;2.05;;;;;;;;;;5121775;28;20087;-83
2022/08/02 08:17:30;;;;;;;7.60;2.17;;;;;;;;;;5116738;28;20032;-82
2022/08/02 08:19:56;;;;;;;8.77;2.10;;;;;;;;;;5118475;28;20032;-82
2022/08/02 08:22:22;;;;;;;6.75;2.40;;;;;;;;;;5118293;28;20030;-82
2022/08/02 08:24:47;;;;;;;9.80;2.40;;;;;;;;;;5120691;28;20094;-84
2022/08/02 08:27:14;;;;;;;8.85;3.88;;;;;;;;;;5103561;28;20035;-82
2022/08/02 08:29:41;;;;;;;10.68;4.00;;;;;;;;;;5122003;28;20027;-83
2022/08/02 08:32:07;;;;;;;10.25;3.15;;;;;;;;;;5122182;28;20051;-85
2022/08/02 08:34:33;;;;;;;7.75;3.10;;;;;;;;;;5103714;28;20016;-83
2022/08/02 08:36:59;;;;;;;8.85;3.50;;;;;;;;;;5121744;28;20137;-81
2022/08/02 08:39:24;;;;;;;9.95;3.30;;;;;;;;;;5121785;28;20015;-80
2022/08/02 08:41:50;;;;;;;12.00;4.13;;;;;;;;;;5121486;28;20077;-80
2022/08/02 08:44:15;;;;;;;11.45;3.70;;;;;;;;;;5121556;28;20043;-83
2022/08/02 08:46:42;;;;;;;15.25;5.35;;;;;;;;;;5121448;28;20039;-82
2022/08/02 08:49:31;;;;;;;6.60;3.65;;;;;;;;;;5120674;28;20023;-81
2022/08/02 08:51:59;;;;;;;20.67;7.65;;;;;;;;;;5105113;28;20067;-83
2022/08/02 08:54:27;;;;;;;14.85;6.30;;;;;;;;;;5121636;28;20392;-84
2022/08/02 08:56:54;;;;;;;16.08;4.93;;;;;;;;;;5103078;28;20068;-83
2022/08/02 08:59:19;;;;;;;9.77;4.43;;;;;;;;;;5121201;28;20023;-81
2022/08/02 09:01:45;;;;;;;11.20;4.15;;;;;;;;;;5121813;28;20020;-82
2022/08/02 09:04:11;;;;;;;7.93;3.92;;;;;;;;;;5121033;28;20028;-81
2022/08/02 09:06:38;;;;;;;12.82;5.20;;;;;;;;;;5114307;28;20038;-80
2022/08/02 09:09:04;;;;;;;8.55;4.47;;;;;;;;;;5103059;28;20032;-80
2022/08/02 09:11:29;;;;;;;8.10;4.60;;;;;;;;;;5121028;28;20043;-82
2022/08/02 09:13:57;;;;;;;7.07;4.10;;;;;;;;;;5120823;28;20031;-80
2022/08/02 09:16:32;;;;;;;7.35;3.80;;;;;;;;;;5121221;28;20067;-79
2022/08/02 09:18:59;;;;;;;9.90;3.17;;;;;;;;;;5103018;28;20039;-80
2022/08/02 09:21:35;;;;;;;6.90;3.25;;;;;;;;;;5120526;28;20249;-80
2022/08/02 09:24:00;;;;;;;4.88;2.80;;;;;;;;;;5121027;28;20039;-82
2022/08/02 09:26:26;;;;;;;7.18;3.05;;;;;;;;;;5120909;28;20026;-82
2022/08/02 09:28:59;;;;;;;4.97;2.22;;;;;;;;;;5120936;28;20224;-81
2022/08/02 09:31:24;;;;;;;5.40;2.30;;;;;;;;;;5121189;28;20316;-81
2022/08/02 09:33:53;;;;;;;13.02;2.92;;;;;;;;;;5087145;28;20046;-80
2022/08/02 09:36:19;;;;;;;5.88;2.67;;;;;;;;;;5116842;28;20070;-82
2022/08/02 09:39:01;;;;;;;6.10;2.65;;;;;;;;;;5120755;28;20091;-82
2022/08/02 09:41:29;;;;;;;6.93;2.30;;;;;;;;;;5120969;28;20020;-81
2022/08/02 09:43:55;;;;;;;5.15;2.28;;;;;;;;;;5120318;28;20029;-81
2022/08/02 09:46:26;;;;;;;8.55;2.70;;;;;;;;;;5113700;28;20028;-81
2022/08/02 09:48:53;;;;;;;5.45;2.63;;;;;;;;;;5120791;28;20090;-81
2022/08/02 09:51:24;;;;;;;4.32;2.10;;;;;;;;;;5121179;28;20290;-81
2022/08/02 09:53:56;;;;;;;4.32;2.20;;;;;;;;;;5120827;28;20051;-83
2022/08/02 09:56:23;;;;;;;5.32;2.00;;;;;;;;;;5120796;28;20033;-83
2022/08/02 09:58:52;;;;;;;6.88;2.30;;;;;;;;;;5126466;28;20023;-81
2022/08/02 10:01:18;;;;;;;3.47;2.03;;;;;;;;;;5118454;28;20028;-81
2022/08/02 10:04:13;;;;;;;5.93;2.30;;;;;;;;;;5125065;28;20058;-82
2022/08/02 10:06:40;;;;;;;6.45;2.50;;;;;;;;;;5104575;28;20043;-82
2022/08/02 10:09:07;;;;;;;3.10;2.13;;;;;;;;;;5124500;28;20186;-82
2022/08/02 10:11:34;;;;;;;7.00;2.10;;;;;;;;;;5123796;28;20047;-82
2022/08/02 10:14:01;;;;;;;5.03;2.20;;;;;;;;;;5119953;28;20084;-82
2022/08/02 10:16:27;;;;;;;5.43;2.33;;;;;;;;;;5124242;28;20196;-83
2022/08/02 10:18:54;;;;;;;10.15;2.42;;;;;;;;;;5117216;28;20055;-82
2022/08/02 10:21:19;;;;;;;6.65;2.42;;;;;;;;;;5118042;28;20020;-81
2022/08/02 10:23:47;;;;;;;7.13;2.33;;;;;;;;;;5124075;28;20076;-84
2022/08/02 10:26:15;;;;;;;8.60;2.35;;;;;;;;;;5123908;28;20087;-82
2022/08/02 10:28:44;;;;;;;5.10;2.30;;;;;;;;;;5124030;28;20144;-83
2022/08/02 10:31:11;;;;;;;7.22;2.72;;;;;;;;;;5121170;28;20097;-79
2022/08/02 10:33:37;;;;;;;3.85;2.10;;;;;;;;;;5123943;28;20022;-80
2022/08/02 10:36:05;;;;;;;5.75;2.30;;;;;;;;;;5124145;28;20019;-83
2022/08/02 10:38:32;;;;;;;7.15;2.63;;;;;;;;;;5119514;28;20020;-82
2022/08/02 10:40:58;;;;;;;4.93;2.30;;;;;;;;;;5117215;28;20023;-84
2022/08/02 10:43:41;;;;;;;3.75;2.05;;;;;;;;;;5124271;28;20076;-84
2022/08/02 10:46:31;;;;;;;2.90;1.83;;;;;;;;;;5112898;28;20199;-84
2022/08/02 10:49:11;;;;;;;5.38;2.20;;;;;;;;;;5123483;28;20023;-79
2022/08/02 10:52:12;;;;;;;5.13;2.20;;;;;;;;;;5123928;28;20116;-85
2022/08/02 10:54:43;;;;;;;4.85;2.10;;;;;;;;;;5070880;28;20042;-82
2022/08/02 10:57:16;;;;;;;7.18;2.05;;;;;;;;;;5123499;28;20023;-84
2022/08/02 10:59:42;;;;;;;3.70;1.98;;;;;;;;;;5123764;28;20073;-84
2022/08/02 11:02:08;;;;;;;4.70;1.92;;;;;;;;;;5123601;28;20051;-81
2022/08/02 11:04:36;;;;;;;5.25;1.95;;;;;;;;;;5123124;28;20030;-83
2022/08/02 11:07:16;;;;;;;5.00;1.80;;;;;;;;;;5123690;28;20218;-84
2022/08/02 11:09:42;;;;;;;5.10;2.05;;;;;;;;;;5122564;28;20031;-82
2022/08/02 11:12:12;;;;;;;4.68;2.22;;;;;;;;;;5122753;28;20297;-84
2022/08/02 11:14:41;;;;;;;5.38;2.28;;;;;;;;;;5118878;28;20029;-85
2022/08/02 11:17:09;;;;;;;4.15;2.10;;;;;;;;;;5117004;28;20028;-83
2022/08/02 11:19:54;;;;;;;4.15;2.17;;;;;;;;;;5111410;28;20076;-82
2022/08/02 11:22:19;;;;;;;4.38;2.58;;;;;;;;;;5122802;28;20031;-81
2022/08/02 11:24:46;;;;;;;9.63;2.63;;;;;;;;;;5122864;28;20204;-84
2022/08/02 11:27:19;;;;;;;4.28;2.05;;;;;;;;;;5122852;28;20020;-83
2022/08/02 11:29:47;;;;;;;8.07;2.20;;;;;;;;;;5122911;28;20066;-83
2022/08/02 11:32:23;;;;;;;4.53;2.30;;;;;;;;;;5122935;28;20030;-84
2022/08/02 11:34:52;;;;;;;4.93;2.20;;;;;;;;;;5122969;28;20091;-84
2022/08/02 11:37:31;;;;;;;6.40;2.40;;;;;;;;;;5123016;28;20019;-84
2022/08/02 11:39:56;;;;;;;7.60;2.75;;;;;;;;;;5122284;28;20027;-79
2022/08/02 11:42:37;;;;;;;4.43;2.25;;;;;;;;;;5122533;28;20083;-84
2022/08/02 11:45:04;;;;;;;6.18;2.50;;;;;;;;;;5122553;28;20019;-85
2022/08/02 11:47:30;;;;;;;3.92;2.10;;;;;;;;;;5122728;28;20092;-85
2022/08/02 11:50:09;;;;;;;4.70;2.40;;;;;;;;;;5104488;28;20027;-85
2022/08/02 11:52:38;;;;;;;4.22;2.15;;;;;;;;;;5110272;28;20034;-85
2022/08/02 11:55:06;;;;;;;5.97;2.30;;;;;;;;;;5122023;28;20022;-84
2022/08/02 11:57:31;;;;;;;7.43;2.63;;;;;;;;;;5116271;28;20087;-84
2022/08/02 11:59:56;;;;;;;8.98;2.20;;;;;;;;;;5122178;28;20031;-81
2022/08/02 12:02:34;;;;;;;5.20;2.40;;;;;;;;;;5122060;28;20343;-81
2022/08/02 12:05:01;;;;;;;6.72;2.20;;;;;;;;;;5112429;28;20039;-84
2022/08/02 12:07:31;;;;;;;6.97;2.20;;;;;;;;;;5117220;28;20020;-82
2022/08/02 12:10:01;;;;;;;4.50;2.08;;;;;;;;;;5121660;28;20024;-83
2022/08/02 12:12:27;;;;;;;3.95;2.08;;;;;;;;;;5121951;28;20027;-82
2022/08/02 12:14:52;;;;;;;4.82;2.00;;;;;;;;;;5122111;28;20023;-84
2022/08/02 12:20:10;;;;;;;3.92;1.88;;;;;;;;;;5110921;28;20030;-83
2022/08/02 12:22:37;;;;;;;4.80;1.85;;;;;;;;;;5120051;28;20047;-85
2022/08/02 12:25:23;;;;;;;4.35;1.98;;;;;;;;;;5121450;28;20024;-85
2022/08/02 12:27:48;;;;;;;5.90;2.00;;;;;;;;;;5120927;28;20231;-83
2022/08/02 12:30:17;;;;;;;3.72;1.80;;;;;;;;;;5121707;28;20015;-84
2022/08/02 12:32:44;;;;;;;4.25;1.80;;;;;;;;;;5121808;28;20227;-83
2022/08/02 12:35:15;;;;;;;3.65;1.85;;;;;;;;;;5121753;28;20383;-85
2022/08/02 12:37:43;;;;;;;6.60;2.00;;;;;;;;;;5122186;28;20315;-85
2022/08/02 12:40:24;;;;;;;5.85;2.00;;;;;;;;;;5115189;28;20020;-84
2022/08/02 12:42:58;;;;;;;7.32;1.92;;;;;;;;;;5110731;28;20060;-85
2022/08/02 12:45:26;;;;;;;4.60;1.75;;;;;;;;;;5121322;28;20019;-83
2022/08/02 12:47:53;;;;;;;2.95;1.80;;;;;;;;;;5121346;28;20050;-82
2022/08/02 12:50:31;;;;;;;3.67;1.80;;;;;;;;;;5121509;28;20043;-83
2022/08/02 12:53:14;;;;;;;4.65;1.70;;;;;;;;;;5122071;28;20208;-84
2022/08/02 12:55:50;;;;;;;3.47;1.80;;;;;;;;;;5118092;28;20030;-83
2022/08/02 12:58:16;;;;;;;4.15;1.73;;;;;;;;;;5111936;28;20050;-82
2022/08/02 13:00:42;;;;;;;4.45;1.80;;;;;;;;;;5121752;28;20016;-81
2022/08/02 13:03:08;;;;;;;2.92;1.90;;;;;;;;;;5121137;28;20077;-83
2022/08/02 13:05:35;;;;;;;4.18;1.77;;;;;;;;;;5115652;28;20024;-82
2022/08/02 13:08:02;;;;;;;3.80;1.88;;;;;;;;;;5120733;28;20019;-82
2022/08/02 13:10:28;;;;;;;3.53;1.80;;;;;;;;;;5117770;28;20077;-83
2022/08/02 13:12:53;;;;;;;4.05;1.60;;;;;;;;;;5117505;28;20016;-82
2022/08/02 13:15:20;;;;;;;4.25;1.70;;;;;;;;;;5103129;28;20027;-84
2022/08/02 13:17:46;;;;;;;5.35;1.50;;;;;;;;;;5121277;28;20023;-84
2022/08/02 13:20:13;;;;;;;5.35;1.60;;;;;;;;;;5114544;28;20264;-82
2022/08/02 13:22:40;;;;;;;5.85;1.70;;;;;;;;;;5102871;28;20207;-82
2022/08/02 13:25:06;;;;;;;6.00;1.52;;;;;;;;;;5118888;28;20024;-81
2022/08/02 13:27:32;;;;;;;4.95;1.70;;;;;;;;;;5121390;28;20043;-81
2022/08/02 13:29:59;;;;;;;3.90;1.55;;;;;;;;;;5121012;28;20072;-83
2022/08/02 13:32:27;;;;;;;2.58;1.50;;;;;;;;;;5120926;28;20121;-80
2022/08/02 13:34:53;;;;;;;3.30;1.45;;;;;;;;;;5123841;28;20082;-82
2022/08/02 13:37:19;;;;;;;2.45;1.50;;;;;;;;;;5125290;28;20060;-84
2022/08/02 13:39:45;;;;;;;3.30;1.60;;;;;;;;;;5124713;28;20307;-83
2022/08/02 13:42:10;;;;;;;2.78;1.50;;;;;;;;;;5125433;28;20471;-81
2022/08/02 13:44:36;;;;;;;5.07;1.50;;;;;;;;;;5106685;28;20055;-82
2022/08/02 13:47:01;;;;;;;5.78;1.40;;;;;;;;;;5124475;28;20364;-81
2022/08/02 13:49:27;;;;;;;3.15;1.48;;;;;;;;;;5125003;28;20019;-85
2022/08/02 13:51:52;;;;;;;2.67;1.40;;;;;;;;;;5095415;28;20036;-81
2022/08/02 13:54:18;;;;;;;6.38;1.60;;;;;;;;;;5119115;28;20019;-84
2022/08/02 13:56:43;;;;;;;5.10;1.92;;;;;;;;;;5124830;28;20218;-82
2022/08/02 13:59:09;;;;;;;2.75;1.50;;;;;;;;;;5124889;28;20019;-81
2022/08/02 14:01:35;;;;;;;3.65;1.52;;;;;;;;;;5124581;28;20151;-83
2022/08/02 14:04:00;;;;;;;3.60;1.40;;;;;;;;;;5118945;28;20044;-82
2022/08/02 14:06:26;;;;;;;3.50;1.30;;;;;;;;;;5118264;28;20024;-83
2022/08/02 14:08:51;;;;;;;5.80;1.70;;;;;;;;;;5124314;28;20034;-81
2022/08/02 14:11:17;;;;;;;3.47;1.50;;;;;;;;;;5121388;28;20020;-81
2022/08/02 14:13:42;;;;;;;2.55;1.42;;;;;;;;;;5112997;28;20077;-84
2022/08/02 14:16:08;;;;;;;2.38;1.42;;;;;;;;;;5122709;28;20080;-82
2022/08/02 14:18:34;;;;;;;3.28;1.55;;;;;;;;;;5124421;28;20253;-82
2022/08/02 14:20:59;;;;;;;3.40;1.50;;;;;;;;;;5124429;28;20214;-81
2022/08/02 14:23:24;;;;;;;4.70;1.40;;;;;;;;;;5120273;28;20027;-81
2022/08/02 14:25:50;;;;;;;3.13;1.40;;;;;;;;;;5121613;28;20090;-81
2022/08/02 14:28:15;;;;;;;3.83;1.60;;;;;;;;;;5124262;28;20023;-80
2022/08/02 14:30:41;;;;;;;6.65;1.40;;;;;;;;;;5124040;28;20034;-84
2022/08/02 14:33:07;;;;;;;3.00;1.70;;;;;;;;;;5124517;28;20035;-82
2022/08/02 14:35:32;;;;;;;3.67;1.40;;;;;;;;;;5123845;28;20236;-83
2022/08/02 14:37:58;;;;;;;2.75;1.40;;;;;;;;;;5124205;28;20061;-77
2022/08/02 14:40:25;;;;;;;4.50;1.45;;;;;;;;;;5123840;28;20055;-83
2022/08/02 14:42:50;;;;;;;10.60;1.73;;;;;;;;;;5124273;28;20016;-81
2022/08/02 14:45:21;;;;;;;3.58;1.45;;;;;;;;;;5123536;28;20058;-84
2022/08/02 14:47:48;;;;;;;3.90;1.40;;;;;;;;;;5123979;28;20015;-83
2022/08/02 14:50:14;;;;;;;4.18;1.42;;;;;;;;;;5123623;28;20050;-82
2022/08/02 14:52:39;;;;;;;3.50;1.60;;;;;;;;;;5123419;28;20058;-82
2022/08/02 14:55:05;;;;;;;5.07;1.60;;;;;;;;;;5123513;28;20031;-81
2022/08/02 14:57:31;;;;;;;6.45;1.52;;;;;;;;;;5123869;28;20065;-83